createdAt,value
2023-05-07T00:01:29.748Z,35.07
2023-05-07T00:03:57.940Z,35.01
2023-05-07T00:06:27.157Z,35.00
2023-05-07T00:08:55.234Z,35.06
2023-05-07T00:11:24.871Z,35.02
2023-05-07T00:13:54.406Z,35.01
2023-05-07T00:16:22.677Z,34.98
2023-05-07T00:18:50.839Z,34.81
2023-05-07T00:21:19.055Z,34.90
2023-05-07T00:23:47.084Z,34.99
2023-05-07T00:26:15.144Z,35.04
2023-05-07T00:28:43.609Z,35.04
2023-05-07T00:31:13.244Z,34.97
2023-05-07T00:33:41.380Z,34.97
2023-05-07T00:36:09.671Z,34.99
2023-05-07T00:38:37.717Z,34.97
2023-05-07T00:41:06.379Z,35.18
2023-05-07T00:43:34.489Z,35.12
2023-05-07T00:46:03.063Z,34.95
2023-05-07T00:48:33.066Z,34.97
2023-05-07T00:51:01.252Z,34.85
2023-05-07T00:53:29.956Z,34.98
2023-05-07T00:55:58.258Z,34.97
2023-05-07T00:58:26.536Z,34.82
2023-05-07T01:00:54.763Z,34.99
2023-05-07T01:03:23.630Z,34.96
2023-05-07T01:05:56.851Z,34.81
2023-05-07T01:08:27.889Z,34.93
2023-05-07T01:10:56.965Z,34.90
2023-05-07T01:13:26.609Z,34.86
2023-05-07T01:15:55.031Z,34.96
2023-05-07T01:18:23.280Z,34.88
2023-05-07T01:20:51.648Z,34.85
2023-05-07T01:23:21.422Z,34.89
2023-05-07T01:25:54.144Z,34.90
2023-05-07T01:28:22.318Z,34.99
2023-05-07T01:31:04.837Z,34.79
2023-05-07T01:33:37.223Z,34.85
2023-05-07T01:36:08.900Z,34.82
2023-05-07T01:38:42.612Z,34.84
2023-05-07T01:41:10.843Z,34.72
2023-05-07T01:43:39.302Z,34.85
2023-05-07T01:46:08.024Z,34.79
2023-05-07T01:48:37.135Z,34.83
2023-05-07T01:51:07.199Z,34.57
2023-05-07T01:53:40.052Z,34.74
2023-05-07T01:56:08.998Z,34.76
2023-05-07T01:58:37.529Z,34.83
2023-05-07T02:01:05.735Z,34.84
2023-05-07T02:03:33.889Z,34.72
2023-05-07T02:06:02.234Z,34.72
2023-05-07T02:08:31.096Z,34.68
2023-05-07T02:11:00.606Z,34.72
2023-05-07T02:13:31.255Z,34.66
2023-05-07T02:15:59.619Z,34.69
2023-05-07T02:18:27.901Z,34.73
2023-05-07T02:20:57.130Z,34.73
2023-05-07T02:23:25.283Z,34.79
2023-05-07T02:25:53.837Z,34.67
2023-05-07T02:28:23.280Z,34.66
2023-05-07T02:30:51.725Z,34.62
2023-05-07T02:33:19.973Z,34.78
2023-05-07T02:35:48.147Z,34.65
2023-05-07T02:38:16.245Z,34.71
2023-05-07T02:40:44.312Z,34.69
2023-05-07T02:43:12.409Z,34.67
2023-05-07T02:45:42.078Z,34.59
2023-05-07T02:48:10.234Z,34.64
2023-05-07T02:50:38.480Z,34.67
2023-05-07T02:53:06.783Z,34.57
2023-05-07T02:55:35.194Z,34.64
2023-05-07T02:58:04.028Z,34.66
2023-05-07T03:00:32.105Z,34.65
2023-05-07T03:03:01.721Z,34.67
2023-05-07T03:05:29.840Z,34.56
2023-05-07T03:07:57.935Z,34.71
2023-05-07T03:10:26.049Z,34.67
2023-05-07T03:12:54.141Z,34.54
2023-05-07T03:15:22.852Z,34.57
2023-05-07T03:17:51.566Z,34.60
2023-05-07T03:20:21.374Z,34.51
2023-05-07T03:22:49.518Z,34.64
2023-05-07T03:25:17.669Z,34.54
2023-05-07T03:27:45.844Z,34.54
2023-05-07T03:30:14.806Z,34.57
2023-05-07T03:32:43.004Z,34.69
2023-05-07T03:35:11.524Z,34.57
2023-05-07T03:37:41.815Z,34.57
2023-05-07T03:40:12.237Z,34.58
2023-05-07T03:42:40.528Z,34.59
2023-05-07T03:45:10.080Z,34.63
2023-05-07T03:47:38.172Z,34.58
2023-05-07T03:50:07.127Z,34.52
2023-05-07T03:52:35.449Z,34.56
2023-05-07T03:55:07.016Z,34.48
2023-05-07T03:57:35.179Z,34.54
2023-05-07T04:00:05.024Z,34.35
2023-05-07T04:02:33.483Z,34.46
2023-05-07T04:05:01.711Z,34.46
2023-05-07T04:07:29.732Z,34.45
2023-05-07T04:09:57.863Z,34.41
2023-05-07T04:12:29.947Z,34.50
2023-05-07T04:14:58.251Z,34.45
2023-05-07T04:17:26.677Z,34.54
2023-05-07T04:19:55.055Z,34.44
2023-05-07T04:22:23.132Z,34.40
2023-05-07T04:24:51.328Z,34.47
2023-05-07T04:27:19.879Z,34.36
2023-05-07T04:29:49.438Z,34.49
2023-05-07T04:32:17.585Z,34.47
2023-05-07T04:34:45.679Z,34.50
2023-05-07T04:37:13.837Z,34.37
2023-05-07T04:39:42.038Z,34.29
2023-05-07T04:42:10.815Z,34.51
2023-05-07T04:44:39.248Z,34.37
2023-05-07T04:47:08.880Z,34.56
2023-05-07T04:49:37.030Z,34.34
2023-05-07T04:52:06.026Z,34.49
2023-05-07T04:54:34.193Z,34.42
2023-05-07T04:57:02.282Z,34.46
2023-05-07T04:59:30.468Z,34.43
2023-05-07T05:01:59.251Z,34.48
2023-05-07T05:04:29.024Z,34.39
2023-05-07T05:06:57.115Z,34.43
2023-05-07T05:09:25.209Z,34.34
2023-05-07T05:11:53.319Z,34.41
2023-05-07T05:14:23.849Z,34.42
2023-05-07T05:16:52.999Z,34.39
2023-05-07T05:19:22.729Z,34.34
2023-05-07T05:21:52.267Z,34.42
2023-05-07T05:24:21.102Z,34.43
2023-05-07T05:26:49.340Z,34.08
2023-05-07T05:29:17.436Z,34.39
2023-05-07T05:31:45.921Z,34.49
2023-05-07T05:34:14.127Z,34.18
2023-05-07T05:36:42.254Z,34.42
2023-05-07T05:39:11.844Z,34.36
2023-05-07T05:41:39.920Z,34.35
2023-05-07T05:44:08.268Z,34.35
2023-05-07T05:46:37.466Z,34.28
2023-05-07T05:49:05.690Z,34.25
2023-05-07T05:51:33.821Z,34.23
2023-05-07T05:54:01.935Z,34.38
2023-05-07T05:56:31.427Z,34.17
2023-05-07T05:59:00.266Z,34.22
2023-05-07T06:01:28.605Z,34.33
2023-05-07T06:03:56.936Z,34.27
2023-05-07T06:06:25.222Z,34.55
2023-05-07T06:08:53.206Z,34.40
2023-05-07T06:11:21.309Z,34.29
2023-05-07T06:13:51.743Z,34.25
2023-05-07T06:16:19.796Z,34.35
2023-05-07T06:18:48.137Z,34.16
2023-05-07T06:21:16.523Z,34.19
2023-05-07T06:23:44.686Z,34.33
2023-05-07T06:26:12.785Z,34.40
2023-05-07T06:28:40.879Z,34.36
2023-05-07T06:31:25.186Z,34.14
2023-05-07T06:33:55.071Z,34.23
2023-05-07T06:36:23.630Z,34.18
2023-05-07T06:38:51.660Z,34.18
2023-05-07T06:41:19.746Z,34.34
2023-05-07T06:43:47.820Z,34.32
2023-05-07T06:46:16.306Z,34.37
2023-05-07T06:48:45.742Z,34.25
2023-05-07T06:51:13.805Z,34.37
2023-05-07T06:53:42.277Z,34.35
2023-05-07T06:56:10.899Z,34.26
2023-05-07T06:58:40.029Z,34.52
2023-05-07T07:01:08.253Z,34.27
2023-05-07T07:03:36.388Z,34.18
2023-05-07T07:06:06.521Z,34.02
2023-05-07T07:08:35.552Z,34.06
2023-05-07T07:11:03.684Z,34.15
2023-05-07T07:13:32.033Z,34.23
2023-05-07T07:16:01.561Z,34.18
2023-05-07T07:18:32.147Z,34.13
2023-05-07T07:21:00.293Z,34.08
2023-05-07T07:23:29.900Z,34.08
2023-05-07T07:25:57.997Z,34.20
2023-05-07T07:28:26.066Z,34.19
2023-05-07T07:30:54.118Z,34.04
2023-05-07T07:33:22.171Z,34.10
2023-05-07T07:35:50.284Z,34.25
2023-05-07T07:38:18.397Z,34.10
2023-05-07T07:40:49.830Z,34.14
2023-05-07T07:43:17.936Z,34.04
2023-05-07T07:45:48.821Z,34.28
2023-05-07T07:48:17.099Z,34.08
2023-05-07T07:50:46.287Z,34.02
2023-05-07T07:53:14.597Z,33.95
2023-05-07T07:55:42.751Z,34.02
2023-05-07T07:58:12.236Z,33.83
2023-05-07T08:00:40.365Z,34.26
2023-05-07T08:03:08.732Z,33.84
2023-05-07T08:05:37.676Z,33.96
2023-05-07T08:08:06.173Z,33.85
2023-05-07T08:10:36.094Z,33.97
2023-05-07T08:13:05.688Z,34.07
2023-05-07T08:15:35.169Z,34.03
2023-05-07T08:18:04.088Z,34.00
2023-05-07T08:20:32.602Z,34.02
2023-05-07T08:23:00.728Z,34.00
2023-05-07T08:25:28.807Z,34.03
2023-05-07T08:27:56.847Z,33.91
2023-05-07T08:30:24.927Z,34.04
2023-05-07T08:32:54.449Z,33.98
2023-05-07T08:35:22.770Z,33.82
2023-05-07T08:37:50.827Z,33.83
2023-05-07T08:40:19.153Z,33.91
2023-05-07T08:42:51.235Z,33.96
2023-05-07T08:45:21.423Z,33.86
2023-05-07T08:47:54.274Z,33.90
2023-05-07T08:50:24.006Z,33.75
2023-05-07T08:52:52.520Z,33.65
2023-05-07T08:55:27.252Z,33.52
2023-05-07T08:57:56.861Z,33.17
2023-05-07T09:00:25.413Z,33.35
2023-05-07T09:02:54.620Z,33.26
2023-05-07T09:05:42.327Z,32.19
2023-05-07T09:08:12.474Z,33.20
2023-05-07T09:10:42.391Z,32.93
2023-05-07T09:13:15.816Z,32.92
2023-05-07T09:15:47.430Z,32.96
2023-05-07T09:18:16.691Z,33.05
2023-05-07T09:21:06.193Z,32.67
2023-05-07T09:23:34.350Z,33.05
2023-05-07T09:26:06.255Z,33.05
2023-05-07T09:28:43.116Z,32.95
2023-05-07T09:31:13.074Z,33.10
2023-05-07T09:33:42.746Z,33.28
2023-05-07T09:36:12.681Z,33.10
2023-05-07T09:38:41.913Z,33.10
2023-05-07T09:41:12.120Z,32.95
2023-05-07T09:43:42.858Z,33.11
2023-05-07T09:46:14.450Z,33.04
2023-05-07T09:48:43.999Z,33.10
2023-05-07T09:51:25.239Z,32.83
2023-05-07T09:53:55.607Z,33.21
2023-05-07T09:56:23.980Z,33.48
2023-05-07T09:58:55.061Z,33.33
2023-05-07T10:01:36.446Z,33.29
2023-05-07T10:04:05.373Z,33.21
2023-05-07T10:06:35.190Z,33.23
2023-05-07T10:09:04.467Z,33.10
2023-05-07T10:11:34.268Z,33.16
2023-05-07T10:14:04.926Z,33.30
2023-05-07T10:16:37.354Z,33.22
2023-05-07T10:19:05.929Z,33.09
2023-05-07T10:21:38.867Z,33.21
2023-05-07T10:24:09.729Z,33.30
2023-05-07T10:26:38.727Z,33.17
2023-05-07T10:29:14.178Z,32.98
2023-05-07T10:32:01.282Z,33.02
2023-05-07T10:34:44.019Z,33.29
2023-05-07T10:37:14.934Z,33.27
2023-05-07T10:39:43.557Z,33.13
2023-05-07T10:42:12.005Z,33.15
2023-05-07T10:44:40.463Z,33.21
2023-05-07T10:47:10.598Z,33.29
2023-05-07T10:49:39.843Z,33.08
2023-05-07T10:52:17.107Z,33.17
2023-05-07T10:54:45.858Z,33.30
2023-05-07T10:57:36.758Z,32.99
2023-05-07T11:00:05.943Z,33.35
2023-05-07T11:03:08.738Z,32.97
2023-05-07T11:05:38.723Z,33.34
2023-05-07T11:08:08.611Z,33.07
2023-05-07T11:10:53.761Z,33.19
2023-05-07T11:13:45.664Z,33.13
2023-05-07T11:16:21.782Z,33.26
2023-05-07T11:18:51.403Z,33.30
2023-05-07T11:21:36.952Z,33.09
2023-05-07T11:24:07.727Z,33.41
2023-05-07T11:26:51.467Z,33.12
2023-05-07T11:29:22.962Z,33.42
2023-05-07T11:31:53.143Z,33.33
2023-05-07T11:34:24.975Z,33.35
2023-05-07T11:36:53.799Z,33.33
2023-05-07T11:39:41.093Z,33.25
2023-05-07T11:42:09.213Z,33.22
2023-05-07T11:44:47.707Z,33.36
2023-05-07T11:47:19.939Z,33.43
2023-05-07T11:49:49.815Z,33.36
2023-05-07T11:52:18.075Z,33.36
2023-05-07T11:54:53.217Z,33.50
2023-05-07T11:57:22.181Z,33.39
2023-05-07T11:59:50.563Z,33.55
2023-05-07T12:02:20.517Z,33.34
2023-05-07T12:04:48.910Z,33.45
2023-05-07T12:07:17.713Z,33.40
2023-05-07T12:09:47.000Z,33.46
2023-05-07T12:12:18.471Z,33.64
2023-05-07T12:14:48.066Z,33.28
2023-05-07T12:17:17.710Z,33.43
2023-05-07T12:19:47.552Z,33.43
2023-05-07T12:22:16.374Z,33.46
2023-05-07T12:24:46.700Z,33.34
2023-05-07T12:27:16.904Z,33.45
2023-05-07T12:29:47.397Z,33.55
2023-05-07T12:32:17.498Z,33.49
2023-05-07T12:34:46.065Z,33.44
2023-05-07T12:37:15.712Z,33.59
2023-05-07T12:39:47.243Z,33.40
2023-05-07T12:42:24.601Z,33.57
2023-05-07T12:44:53.736Z,33.65
2023-05-07T12:47:23.273Z,33.69
2023-05-07T12:49:51.404Z,33.71
2023-05-07T12:52:19.501Z,33.71
2023-05-07T12:54:47.669Z,33.67
2023-05-07T12:57:15.745Z,33.59
2023-05-07T12:59:45.487Z,33.68
2023-05-07T13:02:13.901Z,33.68
2023-05-07T13:04:41.948Z,33.76
2023-05-07T13:07:11.184Z,33.65
2023-05-07T13:09:39.249Z,33.70
2023-05-07T13:12:08.199Z,33.74
2023-05-07T13:14:36.721Z,33.76
2023-05-07T13:17:06.173Z,33.69
2023-05-07T13:19:34.223Z,33.72
2023-05-07T13:22:02.235Z,33.80
2023-05-07T13:24:30.358Z,33.79
2023-05-07T13:26:58.430Z,33.75
2023-05-07T13:29:31.233Z,33.78
2023-05-07T13:32:00.232Z,33.81
2023-05-07T13:34:32.017Z,33.73
2023-05-07T13:37:00.106Z,33.79
2023-05-07T13:39:28.321Z,33.72
2023-05-07T13:41:56.341Z,33.85
2023-05-07T13:44:24.536Z,33.76
2023-05-07T13:46:52.693Z,33.83
2023-05-07T13:49:21.317Z,33.94
2023-05-07T13:51:50.756Z,33.89
2023-05-07T13:54:18.980Z,33.86
2023-05-07T13:56:47.027Z,33.82
2023-05-07T13:59:15.530Z,33.94
2023-05-07T14:01:43.640Z,33.99
2023-05-07T14:04:12.130Z,33.93
2023-05-07T14:06:40.219Z,33.98
2023-05-07T14:09:09.693Z,33.94
2023-05-07T14:11:37.891Z,33.92
2023-05-07T14:14:06.084Z,33.97
2023-05-07T14:16:34.391Z,33.99
2023-05-07T14:19:03.003Z,34.06
2023-05-07T14:21:31.554Z,33.91
2023-05-07T14:23:59.842Z,34.09
2023-05-07T14:26:29.315Z,34.10
2023-05-07T14:28:59.445Z,33.96
2023-05-07T14:31:28.298Z,34.03
2023-05-07T14:33:56.367Z,34.25
2023-05-07T14:36:27.167Z,34.07
2023-05-07T14:38:56.083Z,34.07
2023-05-07T14:41:24.754Z,34.25
2023-05-07T14:43:54.296Z,34.07
2023-05-07T14:46:22.362Z,34.17
2023-05-07T14:48:52.836Z,34.16
2023-05-07T14:51:20.907Z,34.13
2023-05-07T14:53:51.571Z,34.23
2023-05-07T14:56:19.685Z,34.19
2023-05-07T14:58:49.362Z,34.05
2023-05-07T15:01:19.162Z,34.21
2023-05-07T15:03:47.439Z,34.19
2023-05-07T15:06:15.668Z,34.23
2023-05-07T15:08:43.711Z,34.40
2023-05-07T15:11:13.222Z,34.31
2023-05-07T15:13:41.294Z,34.15
2023-05-07T15:16:09.669Z,34.23
2023-05-07T15:18:39.194Z,34.23
2023-05-07T15:21:07.488Z,34.28
2023-05-07T15:23:35.755Z,34.29
2023-05-07T15:26:04.570Z,34.19
2023-05-07T15:28:32.810Z,34.35
2023-05-07T15:31:01.068Z,34.33
2023-05-07T15:33:29.286Z,34.33
2023-05-07T15:36:00.203Z,34.50
2023-05-07T15:38:29.436Z,34.39
2023-05-07T15:40:58.393Z,34.29
2023-05-07T15:43:26.848Z,34.29
2023-05-07T15:45:56.013Z,34.40
2023-05-07T15:48:24.136Z,34.40
2023-05-07T15:50:52.400Z,34.48
2023-05-07T15:53:21.867Z,34.54
2023-05-07T15:55:49.978Z,34.53
2023-05-07T15:58:20.394Z,34.45
2023-05-07T16:00:49.569Z,34.47
2023-05-07T16:03:19.079Z,34.46
2023-05-07T16:05:47.326Z,34.48
2023-05-07T16:08:15.808Z,34.59
2023-05-07T16:10:45.257Z,34.45
2023-05-07T16:13:13.715Z,34.53
2023-05-07T16:15:42.024Z,34.69
2023-05-07T16:18:10.895Z,34.49
2023-05-07T16:20:39.267Z,34.50
2023-05-07T16:23:07.436Z,34.56
2023-05-07T16:25:35.634Z,34.59
2023-05-07T16:28:06.002Z,34.66
2023-05-07T16:30:34.488Z,34.56
2023-05-07T16:33:02.948Z,34.62
2023-05-07T16:35:31.366Z,34.54
2023-05-07T16:37:59.525Z,34.73
2023-05-07T16:40:27.722Z,34.57
2023-05-07T16:42:56.879Z,34.71
2023-05-07T16:45:26.820Z,34.62
2023-05-07T16:47:55.237Z,34.65
2023-05-07T16:50:23.795Z,34.67
2023-05-07T16:52:51.944Z,34.67
2023-05-07T16:55:20.127Z,34.68
2023-05-07T16:57:48.229Z,34.66
2023-05-07T17:00:17.143Z,34.68
2023-05-07T17:02:47.103Z,34.72
2023-05-07T17:05:15.819Z,34.75
2023-05-07T17:07:46.647Z,34.61
2023-05-07T17:10:14.741Z,34.67
2023-05-07T17:12:43.080Z,34.66
2023-05-07T17:15:12.580Z,34.78
2023-05-07T17:17:41.539Z,34.70
2023-05-07T17:20:13.019Z,34.79
2023-05-07T17:22:41.443Z,34.60
2023-05-07T17:25:10.312Z,34.62
2023-05-07T17:27:40.881Z,34.80
2023-05-07T17:30:10.490Z,34.75
2023-05-07T17:32:38.858Z,34.70
2023-05-07T17:35:07.801Z,34.64
2023-05-07T17:37:37.324Z,34.67
2023-05-07T17:40:06.414Z,34.88
2023-05-07T17:42:34.531Z,34.95
2023-05-07T17:45:02.930Z,34.79
2023-05-07T17:47:31.579Z,34.77
2023-05-07T17:50:01.994Z,34.85
2023-05-07T17:52:33.118Z,34.67
2023-05-07T17:55:02.792Z,34.91
2023-05-07T17:57:31.679Z,35.00
2023-05-07T18:00:00.964Z,34.86
2023-05-07T18:02:30.016Z,35.02
2023-05-07T18:04:59.272Z,35.08
2023-05-07T18:07:27.497Z,34.99
2023-05-07T18:09:55.558Z,35.06
2023-05-07T18:12:26.913Z,35.07
2023-05-07T18:14:55.789Z,35.15
2023-05-07T18:17:24.404Z,35.13
2023-05-07T18:19:54.863Z,35.28
2023-05-07T18:22:23.504Z,35.10
2023-05-07T18:24:52.459Z,35.11
2023-05-07T18:27:22.162Z,34.96
2023-05-07T18:29:51.687Z,35.08
2023-05-07T18:32:21.589Z,35.17
2023-05-07T18:34:49.836Z,35.15
2023-05-07T18:37:18.168Z,35.15
2023-05-07T18:39:46.253Z,35.23
2023-05-07T18:42:14.554Z,35.19
2023-05-07T18:44:42.640Z,35.31
2023-05-07T18:47:13.939Z,35.43
2023-05-07T18:49:42.152Z,35.17
2023-05-07T18:52:10.313Z,35.23
2023-05-07T18:54:38.382Z,35.33
2023-05-07T18:57:06.471Z,35.32
2023-05-07T18:59:34.515Z,35.10
2023-05-07T19:02:02.602Z,35.29
2023-05-07T19:04:32.114Z,35.16
2023-05-07T19:07:00.369Z,35.29
2023-05-07T19:09:28.527Z,35.33
2023-05-07T19:11:56.857Z,35.36
2023-05-07T19:14:24.922Z,35.27
2023-05-07T19:16:54.141Z,35.28
2023-05-07T19:19:22.166Z,35.24
2023-05-07T19:21:51.706Z,35.39
2023-05-07T19:24:19.903Z,35.37
2023-05-07T19:26:48.426Z,35.34
2023-05-07T19:29:18.515Z,35.41
2023-05-07T19:31:47.086Z,35.26
2023-05-07T19:34:15.339Z,35.40
2023-05-07T19:36:43.513Z,35.34
2023-05-07T19:39:13.117Z,35.39
2023-05-07T19:41:42.018Z,35.40
2023-05-07T19:44:10.333Z,35.39
2023-05-07T19:46:40.506Z,35.21
2023-05-07T19:49:11.229Z,35.32
2023-05-07T19:51:40.921Z,35.28
2023-05-07T19:54:09.042Z,35.44
2023-05-07T19:56:40.000Z,35.38
2023-05-07T19:59:08.263Z,35.38
2023-05-07T20:01:39.143Z,35.33
2023-05-07T20:04:07.500Z,35.44
2023-05-07T20:06:35.739Z,35.34
2023-05-07T20:09:03.805Z,35.42
2023-05-07T20:11:32.051Z,35.42
2023-05-07T20:14:01.610Z,35.42
2023-05-07T20:16:29.774Z,35.46
2023-05-07T20:18:57.859Z,35.47
2023-05-07T20:21:26.725Z,35.41
2023-05-07T20:23:54.822Z,35.40
2023-05-07T20:26:23.024Z,35.46
2023-05-07T20:28:51.236Z,35.43
2023-05-07T20:31:21.166Z,35.50
2023-05-07T20:33:49.364Z,35.53
2023-05-07T20:36:17.491Z,35.51
2023-05-07T20:38:45.632Z,35.64
2023-05-07T20:41:14.585Z,35.38
2023-05-07T20:43:42.935Z,35.52
2023-05-07T20:46:12.291Z,35.40
2023-05-07T20:48:41.772Z,35.22
2023-05-07T20:51:10.883Z,35.41
2023-05-07T20:53:40.689Z,35.51
2023-05-07T20:56:08.805Z,35.46
2023-05-07T20:58:37.040Z,35.59
2023-05-07T21:01:07.115Z,35.48
2023-05-07T21:03:35.281Z,35.63
2023-05-07T21:06:07.452Z,35.54
2023-05-07T21:08:35.676Z,35.46
2023-05-07T21:11:04.028Z,35.44
2023-05-07T21:13:33.591Z,35.53
2023-05-07T21:16:01.781Z,35.49
2023-05-07T21:18:30.927Z,35.51
2023-05-07T21:20:59.178Z,35.42
2023-05-07T21:23:28.765Z,35.58
2023-05-07T21:25:56.940Z,35.51
2023-05-07T21:28:25.124Z,35.64
2023-05-07T21:30:53.781Z,35.45
2023-05-07T21:33:22.406Z,35.57
2023-05-07T21:35:50.502Z,35.59
2023-05-07T21:38:19.133Z,35.54
2023-05-07T21:40:48.659Z,35.46
2023-05-07T21:43:16.818Z,35.60
2023-05-07T21:45:44.962Z,35.66
2023-05-07T21:48:14.642Z,35.62
2023-05-07T21:50:42.732Z,35.61
2023-05-07T21:53:10.882Z,35.59
2023-05-07T21:55:38.985Z,35.53
2023-05-07T21:58:08.510Z,35.53
2023-05-07T22:00:36.647Z,35.41
2023-05-07T22:03:04.992Z,35.73
2023-05-07T22:05:33.161Z,35.54
2023-05-07T22:08:01.547Z,35.63
2023-05-07T22:10:29.712Z,35.54
2023-05-07T22:12:57.899Z,35.62
2023-05-07T22:15:27.416Z,35.53
2023-05-07T22:17:57.048Z,35.59
2023-05-07T22:20:25.133Z,35.68
2023-05-07T22:22:54.544Z,35.66
2023-05-07T22:25:23.532Z,35.79
2023-05-07T22:27:53.819Z,35.59
2023-05-07T22:30:21.891Z,35.62
2023-05-07T22:32:51.480Z,35.70
2023-05-07T22:35:19.850Z,35.65
2023-05-07T22:37:48.027Z,35.79
2023-05-07T22:40:16.300Z,35.70
2023-05-07T22:42:44.811Z,35.55
2023-05-07T22:45:13.283Z,35.65
2023-05-07T22:47:42.514Z,35.62
2023-05-07T22:50:13.065Z,35.61
2023-05-07T22:52:41.451Z,35.68
2023-05-07T22:55:10.009Z,35.61
2023-05-07T22:57:38.113Z,35.56
2023-05-07T23:00:08.215Z,35.46
2023-05-07T23:02:36.558Z,35.69
2023-05-07T23:05:05.264Z,35.54
2023-05-07T23:07:37.431Z,35.50
2023-05-07T23:10:06.403Z,35.60
2023-05-07T23:12:34.542Z,35.65
2023-05-07T23:15:02.664Z,35.63
2023-05-07T23:17:30.878Z,35.54
2023-05-07T23:19:58.967Z,35.68
2023-05-07T23:22:27.192Z,35.61
2023-05-07T23:24:57.590Z,35.51
2023-05-07T23:27:25.718Z,35.61
2023-05-07T23:29:53.792Z,35.76
2023-05-07T23:32:21.969Z,35.76
2023-05-07T23:34:51.536Z,35.58
2023-05-07T23:37:19.746Z,35.55
2023-05-07T23:39:48.531Z,35.71
2023-05-07T23:42:18.082Z,35.60
2023-05-07T23:44:46.234Z,35.57
2023-05-07T23:47:14.363Z,35.61
2023-05-07T23:49:42.485Z,35.64
2023-05-07T23:52:10.689Z,35.60
2023-05-07T23:54:38.938Z,35.64
2023-05-07T23:57:07.131Z,35.68
2023-05-07T23:59:36.751Z,35.68
